Adagio — WDF9618 — position and weather

sailwx.info

Track history (hours):
 
Tides and Currents Weather Stations Pressure Air Temp Water Temp Dewpoint Dewpoint Depression Visibility Wind Speed Wind Dir Waves Ship Positions

Adagio

Owner: Whalen, Raymond J, Rockville, MD. More information available from US FCC via Universal Licensing System and Coast Guard Vessel Documentation Center.

Last reported at 2017-Nov-17 17:09 UTC. Time now 2017-Nov-19 12:10 UTC.
Position N 34°43' W 076°53'.

Length 14 m.

Type: Sailing vessel. MMSI: 366777490.

Date/timePositionNaut miles runAvg speedWind from/ knotsBaromVisibWave heightAir tempDewpointWater temp
2017-Nov-17 17:09N 34°43' W 076°53'1 6.7
2017-Nov-17 17:00N 34°43' W 076°52'3 6.4
2017-Nov-17 16:30N 34°43' W 076°48'3 5.8
2017-Nov-17 16:00N 34°43' W 076°45'3 5.1
2017-Nov-17 15:30N 34°43' W 076°42'1 1.3
2017-Nov-17 15:00N 34°44' W 076°42'0 0.1
2017-Nov-17 14:30N 34°43' W 076°42'0 0.5
2017-Nov-17 14:00N 34°44' W 076°42'0 0.8
2017-Nov-17 13:30N 34°43' W 076°42'0 0.9
2017-Nov-17 12:58N 34°43' W 076°42'0 0.0
2017-Nov-16 16:35N 34°43' W 076°42'0 1.0
2017-Nov-16 16:30N 34°43' W 076°42'2 4.7
2017-Nov-16 16:01N 34°45' W 076°40'4 7.6
2017-Nov-16 15:30N 34°49' W 076°41'  
2017-Nov-11 15:36N 36°43' W 076°14'0 0.3
2017-Nov-11 15:29N 36°43' W 076°14'1 1.3
2017-Nov-11 14:21N 36°44' W 076°16'2 5.3
2017-Nov-11 14:00N 36°45' W 076°18'2 4.3
2017-Nov-11 13:30N 36°47' W 076°18'3 6.7
2017-Nov-11 13:00N 36°50' W 076°18'1 0.0
2017-Nov-09 20:49N 36°51' W 076°18'0 0.1
2017-Nov-09 20:09N 36°51' W 076°18'1 4.4
2017-Nov-09 19:57N 36°51' W 076°19'  
Track history (hours):
 
Tides and Currents Weather Stations Pressure Air Temp Water Temp Dewpoint Dewpoint Depression Visibility Wind Speed Wind Dir Waves Ship Positions

Adagio

Owner: Whalen, Raymond J, Rockville, MD. More information available from US FCC via Universal Licensing System and Coast Guard Vessel Documentation Center.

Last reported at 2017-Nov-17 17:09 UTC. Time now 2017-Nov-19 12:10 UTC.
Position N 34°43' W 076°53'.

Length 14 m.

Type: Sailing vessel. MMSI: 366777490.

Date/timePositionNaut miles runAvg speedWind from/ knotsBaromVisibWave heightAir tempDewpointWater temp
2017-Nov-17 17:09N 34°43' W 076°53'1 6.7
2017-Nov-17 17:00N 34°43' W 076°52'3 6.4
2017-Nov-17 16:30N 34°43' W 076°48'3 5.8
2017-Nov-17 16:00N 34°43' W 076°45'3 5.1
2017-Nov-17 15:30N 34°43' W 076°42'1 1.3
2017-Nov-17 15:00N 34°44' W 076°42'0 0.1
2017-Nov-17 14:30N 34°43' W 076°42'0 0.5
2017-Nov-17 14:00N 34°44' W 076°42'0 0.8
2017-Nov-17 13:30N 34°43' W 076°42'0 0.9
2017-Nov-17 12:58N 34°43' W 076°42'0 0.0
2017-Nov-16 16:35N 34°43' W 076°42'0 1.0
2017-Nov-16 16:30N 34°43' W 076°42'2 4.7
2017-Nov-16 16:01N 34°45' W 076°40'4 7.6
2017-Nov-16 15:30N 34°49' W 076°41'  
2017-Nov-11 15:36N 36°43' W 076°14'0 0.3
2017-Nov-11 15:29N 36°43' W 076°14'1 1.3
2017-Nov-11 14:21N 36°44' W 076°16'2 5.3
2017-Nov-11 14:00N 36°45' W 076°18'2 4.3
2017-Nov-11 13:30N 36°47' W 076°18'3 6.7
2017-Nov-11 13:00N 36°50' W 076°18'1 0.0
2017-Nov-09 20:49N 36°51' W 076°18'0 0.1
2017-Nov-09 20:09N 36°51' W 076°18'1 4.4
2017-Nov-09 19:57N 36°51' W 076°19'  

Dump ship's entire track history